sensor_id;sensor_type;location;lat;lon;timestamp;temperature;humidity
70550;DHT22;58101;48.658;2.328;2023-07-22T00:00:32;19.00;49.20
70550;DHT22;58101;48.658;2.328;2023-07-22T00:02:58;18.90;48.10
70550;DHT22;58101;48.658;2.328;2023-07-22T00:05:23;18.90;48.30
70550;DHT22;58101;48.658;2.328;2023-07-22T00:07:49;18.90;48.40
70550;DHT22;58101;48.658;2.328;2023-07-22T00:10:16;18.80;48.40
70550;DHT22;58101;48.658;2.328;2023-07-22T00:12:41;18.80;48.40
70550;DHT22;58101;48.658;2.328;2023-07-22T00:15:08;18.80;48.50
70550;DHT22;58101;48.658;2.328;2023-07-22T00:17:33;18.70;48.80
70550;DHT22;58101;48.658;2.328;2023-07-22T00:19:59;18.60;48.80
70550;DHT22;58101;48.658;2.328;2023-07-22T00:22:25;18.60;48.90
70550;DHT22;58101;48.658;2.328;2023-07-22T00:24:52;18.60;49.20
70550;DHT22;58101;48.658;2.328;2023-07-22T00:27:18;18.50;49.20
70550;DHT22;58101;48.658;2.328;2023-07-22T00:29:43;18.50;49.40
70550;DHT22;58101;48.658;2.328;2023-07-22T00:32:09;18.40;49.50
70550;DHT22;58101;48.658;2.328;2023-07-22T00:34:35;18.40;49.80
70550;DHT22;58101;48.658;2.328;2023-07-22T00:37:03;18.30;49.80
70550;DHT22;58101;48.658;2.328;2023-07-22T00:39:28;18.30;50.20
70550;DHT22;58101;48.658;2.328;2023-07-22T00:41:54;18.20;50.10
70550;DHT22;58101;48.658;2.328;2023-07-22T00:44:20;18.10;51.40
70550;DHT22;58101;48.658;2.328;2023-07-22T00:46:45;18.20;50.60
70550;DHT22;58101;48.658;2.328;2023-07-22T00:49:11;18.00;50.80
70550;DHT22;58101;48.658;2.328;2023-07-22T00:51:39;17.90;51.10
70550;DHT22;58101;48.658;2.328;2023-07-22T00:54:05;17.90;51.40
70550;DHT22;58101;48.658;2.328;2023-07-22T00:56:33;17.80;51.40
70550;DHT22;58101;48.658;2.328;2023-07-22T00:59:01;17.80;51.70
70550;DHT22;58101;48.658;2.328;2023-07-22T01:01:27;17.70;51.70
70550;DHT22;58101;48.658;2.328;2023-07-22T01:03:52;17.70;51.90
70550;DHT22;58101;48.658;2.328;2023-07-22T01:06:19;17.60;52.20
70550;DHT22;58101;48.658;2.328;2023-07-22T01:08:45;17.60;52.50
70550;DHT22;58101;48.658;2.328;2023-07-22T01:11:12;17.60;52.60
70550;DHT22;58101;48.658;2.328;2023-07-22T01:13:38;17.50;53.00
70550;DHT22;58101;48.658;2.328;2023-07-22T01:16:05;17.50;53.30
70550;DHT22;58101;48.658;2.328;2023-07-22T01:18:35;17.40;53.30
70550;DHT22;58101;48.658;2.328;2023-07-22T01:21:01;17.40;53.50
70550;DHT22;58101;48.658;2.328;2023-07-22T01:23:27;17.30;53.90
70550;DHT22;58101;48.658;2.328;2023-07-22T01:25:52;17.30;54.00
70550;DHT22;58101;48.658;2.328;2023-07-22T01:28:21;17.20;54.20
70550;DHT22;58101;48.658;2.328;2023-07-22T01:30:47;17.20;54.30
70550;DHT22;58101;48.658;2.328;2023-07-22T01:33:14;17.20;54.40
70550;DHT22;58101;48.658;2.328;2023-07-22T01:35:40;17.20;54.50
70550;DHT22;58101;48.658;2.328;2023-07-22T01:38:05;17.20;54.50
70550;DHT22;58101;48.658;2.328;2023-07-22T01:40:32;17.20;54.50
70550;DHT22;58101;48.658;2.328;2023-07-22T01:42:58;17.20;54.70
70550;DHT22;58101;48.658;2.328;2023-07-22T01:45:23;17.20;54.60
70550;DHT22;58101;48.658;2.328;2023-07-22T01:47:49;17.20;54.60
70550;DHT22;58101;48.658;2.328;2023-07-22T01:50:14;17.10;54.70
70550;DHT22;58101;48.658;2.328;2023-07-22T01:52:40;17.10;55.00
70550;DHT22;58101;48.658;2.328;2023-07-22T01:55:06;17.00;55.10
70550;DHT22;58101;48.658;2.328;2023-07-22T01:57:34;16.90;55.30
70550;DHT22;58101;48.658;2.328;2023-07-22T01:59:59;16.90;55.50
70550;DHT22;58101;48.658;2.328;2023-07-22T02:02:26;16.80;56.30
70550;DHT22;58101;48.658;2.328;2023-07-22T02:04:52;16.80;56.70
70550;DHT22;58101;48.658;2.328;2023-07-22T02:07:18;16.70;57.10
70550;DHT22;58101;48.658;2.328;2023-07-22T02:09:43;16.70;57.60
70550;DHT22;58101;48.658;2.328;2023-07-22T02:12:09;16.60;57.60
70550;DHT22;58101;48.658;2.328;2023-07-22T02:14:36;16.60;57.90
70550;DHT22;58101;48.658;2.328;2023-07-22T02:17:02;16.50;58.10
70550;DHT22;58101;48.658;2.328;2023-07-22T02:19:29;16.50;58.40
70550;DHT22;58101;48.658;2.328;2023-07-22T02:21:54;16.50;58.60
70550;DHT22;58101;48.658;2.328;2023-07-22T02:24:20;16.40;58.80
70550;DHT22;58101;48.658;2.328;2023-07-22T02:26:46;16.40;59.10
70550;DHT22;58101;48.658;2.328;2023-07-22T02:29:12;16.40;59.40
70550;DHT22;58101;48.658;2.328;2023-07-22T02:31:37;16.30;59.80
70550;DHT22;58101;48.658;2.328;2023-07-22T02:34:05;16.30;60.00
70550;DHT22;58101;48.658;2.328;2023-07-22T02:36:31;16.20;60.20
70550;DHT22;58101;48.658;2.328;2023-07-22T02:38:56;16.20;60.50
70550;DHT22;58101;48.658;2.328;2023-07-22T02:41:22;16.20;60.90
70550;DHT22;58101;48.658;2.328;2023-07-22T02:43:48;16.20;60.90
70550;DHT22;58101;48.658;2.328;2023-07-22T02:46:13;16.40;61.10
70550;DHT22;58101;48.658;2.328;2023-07-22T02:48:39;16.20;61.30
70550;DHT22;58101;48.658;2.328;2023-07-22T02:51:07;16.20;61.40
70550;DHT22;58101;48.658;2.328;2023-07-22T02:53:33;16.20;61.60
70550;DHT22;58101;48.658;2.328;2023-07-22T02:55:59;16.20;62.10
70550;DHT22;58101;48.658;2.328;2023-07-22T02:58:25;16.20;62.50
70550;DHT22;58101;48.658;2.328;2023-07-22T03:00:51;16.10;63.00
70550;DHT22;58101;48.658;2.328;2023-07-22T03:03:16;16.00;63.00
70550;DHT22;58101;48.658;2.328;2023-07-22T03:05:44;15.90;64.00
70550;DHT22;58101;48.658;2.328;2023-07-22T03:08:10;15.90;64.40
70550;DHT22;58101;48.658;2.328;2023-07-22T03:10:36;15.80;64.90
70550;DHT22;58101;48.658;2.328;2023-07-22T03:13:01;15.80;65.40
70550;DHT22;58101;48.658;2.328;2023-07-22T03:15:29;15.80;66.00
70550;DHT22;58101;48.658;2.328;2023-07-22T03:17:56;15.80;66.40
70550;DHT22;58101;48.658;2.328;2023-07-22T03:20:22;15.80;66.40
70550;DHT22;58101;48.658;2.328;2023-07-22T03:22:49;15.80;66.70
70550;DHT22;58101;48.658;2.328;2023-07-22T03:25:15;15.70;66.90
70550;DHT22;58101;48.658;2.328;2023-07-22T03:27:45;15.70;67.30
70550;DHT22;58101;48.658;2.328;2023-07-22T03:30:12;15.70;67.60
70550;DHT22;58101;48.658;2.328;2023-07-22T03:32:41;15.60;68.00
70550;DHT22;58101;48.658;2.328;2023-07-22T03:35:08;15.60;68.10
70550;DHT22;58101;48.658;2.328;2023-07-22T03:37:35;15.60;68.60
70550;DHT22;58101;48.658;2.328;2023-07-22T03:40:05;15.50;69.00
70550;DHT22;58101;48.658;2.328;2023-07-22T03:42:34;15.50;69.50
70550;DHT22;58101;48.658;2.328;2023-07-22T03:44:59;15.50;69.70
70550;DHT22;58101;48.658;2.328;2023-07-22T03:47:25;15.50;69.90
70550;DHT22;58101;48.658;2.328;2023-07-22T03:49:50;15.50;70.10
70550;DHT22;58101;48.658;2.328;2023-07-22T03:52:16;15.50;70.40
70550;DHT22;58101;48.658;2.328;2023-07-22T03:54:44;15.40;70.80
70550;DHT22;58101;48.658;2.328;2023-07-22T03:57:10;15.40;71.70
70550;DHT22;58101;48.658;2.328;2023-07-22T03:59:35;15.30;72.00
70550;DHT22;58101;48.658;2.328;2023-07-22T04:02:02;15.10;72.30
70550;DHT22;58101;48.658;2.328;2023-07-22T04:04:27;15.20;72.60
70550;DHT22;58101;48.658;2.328;2023-07-22T04:06:53;15.20;73.40
70550;DHT22;58101;48.658;2.328;2023-07-22T04:09:18;15.10;73.60
70550;DHT22;58101;48.658;2.328;2023-07-22T04:11:44;15.20;73.30
70550;DHT22;58101;48.658;2.328;2023-07-22T04:14:10;15.20;73.30
70550;DHT22;58101;48.658;2.328;2023-07-22T04:16:38;15.20;73.20
70550;DHT22;58101;48.658;2.328;2023-07-22T04:19:03;15.10;73.30
70550;DHT22;58101;48.658;2.328;2023-07-22T04:21:29;15.10;73.10
70550;DHT22;58101;48.658;2.328;2023-07-22T04:23:55;15.10;73.20
70550;DHT22;58101;48.658;2.328;2023-07-22T04:26:20;15.10;73.30
70550;DHT22;58101;48.658;2.328;2023-07-22T04:28:46;15.10;73.30
70550;DHT22;58101;48.658;2.328;2023-07-22T04:31:12;15.10;73.10
70550;DHT22;58101;48.658;2.328;2023-07-22T04:33:37;15.10;73.40
70550;DHT22;58101;48.658;2.328;2023-07-22T04:36:03;14.90;73.40
70550;DHT22;58101;48.658;2.328;2023-07-22T04:38:28;15.10;72.60
70550;DHT22;58101;48.658;2.328;2023-07-22T04:40:54;15.10;72.70
70550;DHT22;58101;48.658;2.328;2023-07-22T04:43:20;15.10;72.50
70550;DHT22;58101;48.658;2.328;2023-07-22T04:45:46;15.10;72.30
70550;DHT22;58101;48.658;2.328;2023-07-22T04:48:15;15.20;72.30
70550;DHT22;58101;48.658;2.328;2023-07-22T04:50:41;15.20;72.30
70550;DHT22;58101;48.658;2.328;2023-07-22T04:53:10;15.30;72.20
70550;DHT22;58101;48.658;2.328;2023-07-22T04:55:36;15.20;72.80
70550;DHT22;58101;48.658;2.328;2023-07-22T04:58:02;15.30;72.40
70550;DHT22;58101;48.658;2.328;2023-07-22T05:00:28;15.40;73.10
70550;DHT22;58101;48.658;2.328;2023-07-22T05:02:54;15.40;74.00
70550;DHT22;58101;48.658;2.328;2023-07-22T05:05:21;15.40;72.60
70550;DHT22;58101;48.658;2.328;2023-07-22T05:07:50;15.40;72.90
70550;DHT22;58101;48.658;2.328;2023-07-22T05:10:16;15.40;72.80
70550;DHT22;58101;48.658;2.328;2023-07-22T05:12:42;15.40;73.00
70550;DHT22;58101;48.658;2.328;2023-07-22T05:15:10;15.40;73.50
70550;DHT22;58101;48.658;2.328;2023-07-22T05:17:35;15.40;73.50
70550;DHT22;58101;48.658;2.328;2023-07-22T05:20:01;15.40;73.70
70550;DHT22;58101;48.658;2.328;2023-07-22T05:22:27;15.40;73.20
70550;DHT22;58101;48.658;2.328;2023-07-22T05:24:52;15.40;73.30
70550;DHT22;58101;48.658;2.328;2023-07-22T05:27:18;15.40;73.40
70550;DHT22;58101;48.658;2.328;2023-07-22T05:29:44;15.40;73.80
70550;DHT22;58101;48.658;2.328;2023-07-22T05:32:10;15.30;73.70
70550;DHT22;58101;48.658;2.328;2023-07-22T05:34:36;15.50;73.70
70550;DHT22;58101;48.658;2.328;2023-07-22T05:37:02;15.50;73.10
70550;DHT22;58101;48.658;2.328;2023-07-22T05:39:27;15.60;73.20
70550;DHT22;58101;48.658;2.328;2023-07-22T05:41:53;15.50;73.00
70550;DHT22;58101;48.658;2.328;2023-07-22T05:44:19;15.60;72.70
70550;DHT22;58101;48.658;2.328;2023-07-22T05:46:44;15.70;73.00
70550;DHT22;58101;48.658;2.328;2023-07-22T05:49:10;15.80;72.80
70550;DHT22;58101;48.658;2.328;2023-07-22T05:51:38;15.80;71.80
70550;DHT22;58101;48.658;2.328;2023-07-22T05:54:04;15.90;71.50
70550;DHT22;58101;48.658;2.328;2023-07-22T05:56:33;15.90;70.80
70550;DHT22;58101;48.658;2.328;2023-07-22T05:58:58;16.00;70.70
70550;DHT22;58101;48.658;2.328;2023-07-22T06:01:24;16.10;70.90
70550;DHT22;58101;48.658;2.328;2023-07-22T06:03:50;16.20;70.40
70550;DHT22;58101;48.658;2.328;2023-07-22T06:06:16;16.30;69.60
70550;DHT22;58101;48.658;2.328;2023-07-22T06:08:41;16.40;69.60
70550;DHT22;58101;48.658;2.328;2023-07-22T06:11:07;16.50;69.10
70550;DHT22;58101;48.658;2.328;2023-07-22T06:13:33;16.60;68.40
70550;DHT22;58101;48.658;2.328;2023-07-22T06:15:58;16.70;68.60
70550;DHT22;58101;48.658;2.328;2023-07-22T06:18:24;16.80;67.30
70550;DHT22;58101;48.658;2.328;2023-07-22T06:20:50;16.90;67.40
70550;DHT22;58101;48.658;2.328;2023-07-22T06:23:16;17.10;66.90
70550;DHT22;58101;48.658;2.328;2023-07-22T06:25:41;17.20;65.90
70550;DHT22;58101;48.658;2.328;2023-07-22T06:28:10;17.30;64.90
70550;DHT22;58101;48.658;2.328;2023-07-22T06:30:36;17.40;64.60
70550;DHT22;58101;48.658;2.328;2023-07-22T06:33:01;17.50;64.20
70550;DHT22;58101;48.658;2.328;2023-07-22T06:35:27;17.50;64.90
70550;DHT22;58101;48.658;2.328;2023-07-22T06:37:53;17.60;64.70
70550;DHT22;58101;48.658;2.328;2023-07-22T06:40:18;17.60;64.50
70550;DHT22;58101;48.658;2.328;2023-07-22T06:42:44;17.70;63.50
70550;DHT22;58101;48.658;2.328;2023-07-22T06:45:10;17.90;63.10
70550;DHT22;58101;48.658;2.328;2023-07-22T06:47:36;17.90;62.00
70550;DHT22;58101;48.658;2.328;2023-07-22T06:50:02;17.90;63.00
70550;DHT22;58101;48.658;2.328;2023-07-22T06:52:30;18.10;62.40
70550;DHT22;58101;48.658;2.328;2023-07-22T06:54:55;18.30;62.50
70550;DHT22;58101;48.658;2.328;2023-07-22T06:57:21;18.50;60.80
70550;DHT22;58101;48.658;2.328;2023-07-22T06:59:47;18.60;60.60
70550;DHT22;58101;48.658;2.328;2023-07-22T07:02:12;18.80;60.00
70550;DHT22;58101;48.658;2.328;2023-07-22T07:04:38;18.80;59.60
70550;DHT22;58101;48.658;2.328;2023-07-22T07:07:04;19.10;58.50
70550;DHT22;58101;48.658;2.328;2023-07-22T07:09:29;19.10;57.90
70550;DHT22;58101;48.658;2.328;2023-07-22T07:11:55;19.20;58.10
70550;DHT22;58101;48.658;2.328;2023-07-22T07:14:23;19.30;57.90
70550;DHT22;58101;48.658;2.328;2023-07-22T07:16:50;19.20;58.70
70550;DHT22;58101;48.658;2.328;2023-07-22T07:19:15;19.10;58.90
70550;DHT22;58101;48.658;2.328;2023-07-22T07:21:41;19.00;59.60
70550;DHT22;58101;48.658;2.328;2023-07-22T07:24:07;19.00;60.00
70550;DHT22;58101;48.658;2.328;2023-07-22T07:26:33;19.00;61.50
70550;DHT22;58101;48.658;2.328;2023-07-22T07:28:58;19.10;62.20
70550;DHT22;58101;48.658;2.328;2023-07-22T07:31:27;19.20;63.60
70550;DHT22;58101;48.658;2.328;2023-07-22T07:33:52;19.20;63.60
70550;DHT22;58101;48.658;2.328;2023-07-22T07:36:20;19.20;64.20
70550;DHT22;58101;48.658;2.328;2023-07-22T07:38:46;19.30;64.80
70550;DHT22;58101;48.658;2.328;2023-07-22T07:41:12;19.30;63.30
70550;DHT22;58101;48.658;2.328;2023-07-22T07:43:39;19.40;62.50
70550;DHT22;58101;48.658;2.328;2023-07-22T07:48:43;19.60;60.70
70550;DHT22;58101;48.658;2.328;2023-07-22T07:51:11;19.60;61.40
70550;DHT22;58101;48.658;2.328;2023-07-22T07:53:37;19.80;61.40
70550;DHT22;58101;48.658;2.328;2023-07-22T07:56:03;19.90;61.50
70550;DHT22;58101;48.658;2.328;2023-07-22T07:58:29;20.10;61.20
70550;DHT22;58101;48.658;2.328;2023-07-22T08:00:54;20.20;60.90
70550;DHT22;58101;48.658;2.328;2023-07-22T08:03:20;20.20;61.00
70550;DHT22;58101;48.658;2.328;2023-07-22T08:05:46;20.30;60.40
70550;DHT22;58101;48.658;2.328;2023-07-22T08:08:11;20.40;60.80
70550;DHT22;58101;48.658;2.328;2023-07-22T08:10:37;20.30;60.70
70550;DHT22;58101;48.658;2.328;2023-07-22T08:13:02;20.40;60.10
70550;DHT22;58101;48.658;2.328;2023-07-22T08:15:28;20.40;60.10
70550;DHT22;58101;48.658;2.328;2023-07-22T08:17:54;20.40;60.80
70550;DHT22;58101;48.658;2.328;2023-07-22T08:20:19;20.50;59.20
70550;DHT22;58101;48.658;2.328;2023-07-22T08:22:46;20.60;58.60
70550;DHT22;58101;48.658;2.328;2023-07-22T08:25:12;20.70;58.30
70550;DHT22;58101;48.658;2.328;2023-07-22T08:27:38;20.90;57.60
70550;DHT22;58101;48.658;2.328;2023-07-22T08:30:03;21.10;57.50
70550;DHT22;58101;48.658;2.328;2023-07-22T08:32:29;21.40;56.90
70550;DHT22;58101;48.658;2.328;2023-07-22T08:34:55;21.50;56.00
70550;DHT22;58101;48.658;2.328;2023-07-22T08:37:20;21.60;54.30
70550;DHT22;58101;48.658;2.328;2023-07-22T08:39:46;21.60;54.10
70550;DHT22;58101;48.658;2.328;2023-07-22T08:42:13;21.50;53.40
70550;DHT22;58101;48.658;2.328;2023-07-22T08:44:43;21.40;54.10
70550;DHT22;58101;48.658;2.328;2023-07-22T08:47:10;21.50;54.50
70550;DHT22;58101;48.658;2.328;2023-07-22T08:49:40;21.60;53.20
70550;DHT22;58101;48.658;2.328;2023-07-22T08:52:07;21.70;52.70
70550;DHT22;58101;48.658;2.328;2023-07-22T08:54:33;21.60;53.40
70550;DHT22;58101;48.658;2.328;2023-07-22T08:56:59;21.70;51.30
70550;DHT22;58101;48.658;2.328;2023-07-22T08:59:25;21.70;52.00
70550;DHT22;58101;48.658;2.328;2023-07-22T09:01:51;21.90;51.90
70550;DHT22;58101;48.658;2.328;2023-07-22T09:04:17;22.00;50.40
70550;DHT22;58101;48.658;2.328;2023-07-22T09:06:45;22.00;49.40
70550;DHT22;58101;48.658;2.328;2023-07-22T09:09:10;22.10;49.30
70550;DHT22;58101;48.658;2.328;2023-07-22T09:11:37;22.40;48.30
70550;DHT22;58101;48.658;2.328;2023-07-22T09:14:03;22.30;47.50
70550;DHT22;58101;48.658;2.328;2023-07-22T09:16:32;22.20;48.20
70550;DHT22;58101;48.658;2.328;2023-07-22T09:18:59;22.30;47.70
70550;DHT22;58101;48.658;2.328;2023-07-22T09:21:24;22.50;47.50
70550;DHT22;58101;48.658;2.328;2023-07-22T09:23:50;23.10;47.30
70550;DHT22;58101;48.658;2.328;2023-07-22T09:26:18;23.80;46.30
70550;DHT22;58101;48.658;2.328;2023-07-22T09:31:20;26.40;37.90
70550;DHT22;58101;48.658;2.328;2023-07-22T09:33:45;27.40;36.90
70550;DHT22;58101;48.658;2.328;2023-07-22T09:36:12;27.90;34.40
70550;DHT22;58101;48.658;2.328;2023-07-22T09:38:37;28.50;32.30
70550;DHT22;58101;48.658;2.328;2023-07-22T09:41:03;28.20;31.90
70550;DHT22;58101;48.658;2.328;2023-07-22T09:43:30;28.70;31.50
70550;DHT22;58101;48.658;2.328;2023-07-22T09:45:55;28.90;30.40
70550;DHT22;58101;48.658;2.328;2023-07-22T09:48:24;29.50;29.60
70550;DHT22;58101;48.658;2.328;2023-07-22T09:50:57;30.20;28.80
70550;DHT22;58101;48.658;2.328;2023-07-22T09:53:23;29.90;28.80
70550;DHT22;58101;48.658;2.328;2023-07-22T09:55:48;30.40;28.60
70550;DHT22;58101;48.658;2.328;2023-07-22T09:58:17;30.30;27.80
70550;DHT22;58101;48.658;2.328;2023-07-22T10:00:48;29.90;27.80
70550;DHT22;58101;48.658;2.328;2023-07-22T10:03:16;29.40;28.70
70550;DHT22;58101;48.658;2.328;2023-07-22T10:05:45;29.70;28.80
70550;DHT22;58101;48.658;2.328;2023-07-22T10:08:16;29.50;29.10
70550;DHT22;58101;48.658;2.328;2023-07-22T10:10:44;29.30;28.70
70550;DHT22;58101;48.658;2.328;2023-07-22T10:13:10;28.70;29.00
70550;DHT22;58101;48.658;2.328;2023-07-22T10:15:37;27.70;30.70
70550;DHT22;58101;48.658;2.328;2023-07-22T10:18:04;26.90;31.60
70550;DHT22;58101;48.658;2.328;2023-07-22T10:20:34;26.50;33.30
70550;DHT22;58101;48.658;2.328;2023-07-22T10:23:01;27.30;33.00
70550;DHT22;58101;48.658;2.328;2023-07-22T10:25:28;28.60;31.10
70550;DHT22;58101;48.658;2.328;2023-07-22T10:27:54;29.50;29.70
70550;DHT22;58101;48.658;2.328;2023-07-22T10:30:19;30.50;29.00
70550;DHT22;58101;48.658;2.328;2023-07-22T10:32:50;30.90;28.00
70550;DHT22;58101;48.658;2.328;2023-07-22T10:38:10;29.30;29.10
70550;DHT22;58101;48.658;2.328;2023-07-22T10:40:55;29.10;29.10
70550;DHT22;58101;48.658;2.328;2023-07-22T10:43:25;28.90;28.90
70550;DHT22;58101;48.658;2.328;2023-07-22T10:45:55;28.70;29.30
70550;DHT22;58101;48.658;2.328;2023-07-22T10:48:34;28.40;30.00
70550;DHT22;58101;48.658;2.328;2023-07-22T10:51:11;28.10;31.10
70550;DHT22;58101;48.658;2.328;2023-07-22T10:53:48;27.70;30.40
70550;DHT22;58101;48.658;2.328;2023-07-22T10:56:21;26.90;32.40
70550;DHT22;58101;48.658;2.328;2023-07-22T11:04:13;26.80;32.40
70550;DHT22;58101;48.658;2.328;2023-07-22T11:12:05;26.60;32.90
70550;DHT22;58101;48.658;2.328;2023-07-22T11:14:33;26.60;32.90
70550;DHT22;58101;48.658;2.328;2023-07-22T11:17:02;26.70;32.50
70550;DHT22;58101;48.658;2.328;2023-07-22T11:19:29;26.70;32.60
70550;DHT22;58101;48.658;2.328;2023-07-22T11:21:55;26.40;33.20
70550;DHT22;58101;48.658;2.328;2023-07-22T11:24:22;26.50;32.90
70550;DHT22;58101;48.658;2.328;2023-07-22T11:26:48;26.70;32.50
70550;DHT22;58101;48.658;2.328;2023-07-22T11:29:15;26.70;32.30
70550;DHT22;58101;48.658;2.328;2023-07-22T11:31:46;27.00;32.60
70550;DHT22;58101;48.658;2.328;2023-07-22T11:34:14;27.20;31.70
70550;DHT22;58101;48.658;2.328;2023-07-22T11:36:40;26.80;31.70
70550;DHT22;58101;48.658;2.328;2023-07-22T11:39:17;26.60;31.80
70550;DHT22;58101;48.658;2.328;2023-07-22T11:41:43;26.50;32.90
70550;DHT22;58101;48.658;2.328;2023-07-22T11:44:11;26.60;33.20
70550;DHT22;58101;48.658;2.328;2023-07-22T11:49:25;26.40;33.90
70550;DHT22;58101;48.658;2.328;2023-07-22T11:51:58;26.30;33.40
70550;DHT22;58101;48.658;2.328;2023-07-22T11:54:25;26.50;33.60
70550;DHT22;58101;48.658;2.328;2023-07-22T11:56:51;26.80;33.40
70550;DHT22;58101;48.658;2.328;2023-07-22T11:59:17;27.00;32.90
70550;DHT22;58101;48.658;2.328;2023-07-22T12:01:44;27.00;33.20
70550;DHT22;58101;48.658;2.328;2023-07-22T12:04:11;27.10;32.80
70550;DHT22;58101;48.658;2.328;2023-07-22T12:06:37;27.00;31.60
70550;DHT22;58101;48.658;2.328;2023-07-22T12:09:03;26.60;32.20
70550;DHT22;58101;48.658;2.328;2023-07-22T12:11:32;26.50;32.20
70550;DHT22;58101;48.658;2.328;2023-07-22T12:16:37;26.40;32.70
70550;DHT22;58101;48.658;2.328;2023-07-22T12:19:04;26.50;32.90
70550;DHT22;58101;48.658;2.328;2023-07-22T12:21:30;27.00;32.50
70550;DHT22;58101;48.658;2.328;2023-07-22T12:23:55;27.10;31.90
70550;DHT22;58101;48.658;2.328;2023-07-22T12:26:21;27.50;30.60
70550;DHT22;58101;48.658;2.328;2023-07-22T12:28:47;27.70;31.20
70550;DHT22;58101;48.658;2.328;2023-07-22T12:31:12;27.80;31.00
70550;DHT22;58101;48.658;2.328;2023-07-22T12:33:38;27.80;30.00
70550;DHT22;58101;48.658;2.328;2023-07-22T12:36:04;27.80;30.20
70550;DHT22;58101;48.658;2.328;2023-07-22T12:38:30;27.70;30.80
70550;DHT22;58101;48.658;2.328;2023-07-22T12:40:56;27.60;30.30
70550;DHT22;58101;48.658;2.328;2023-07-22T12:43:22;27.40;30.20
70550;DHT22;58101;48.658;2.328;2023-07-22T12:45:47;27.00;31.20
70550;DHT22;58101;48.658;2.328;2023-07-22T12:48:13;27.20;31.80
70550;DHT22;58101;48.658;2.328;2023-07-22T12:50:39;26.90;31.10
70550;DHT22;58101;48.658;2.328;2023-07-22T12:53:04;26.80;31.40
70550;DHT22;58101;48.658;2.328;2023-07-22T12:55:30;27.00;31.90
70550;DHT22;58101;48.658;2.328;2023-07-22T12:57:55;27.30;30.40
70550;DHT22;58101;48.658;2.328;2023-07-22T13:00:21;27.40;30.50
70550;DHT22;58101;48.658;2.328;2023-07-22T13:02:47;27.50;30.40
70550;DHT22;58101;48.658;2.328;2023-07-22T13:05:13;27.60;30.10
70550;DHT22;58101;48.658;2.328;2023-07-22T13:07:41;27.80;30.40
70550;DHT22;58101;48.658;2.328;2023-07-22T13:10:07;27.80;30.00
70550;DHT22;58101;48.658;2.328;2023-07-22T13:12:36;27.70;29.60
70550;DHT22;58101;48.658;2.328;2023-07-22T13:15:03;27.70;30.20
70550;DHT22;58101;48.658;2.328;2023-07-22T13:17:29;27.80;30.70
70550;DHT22;58101;48.658;2.328;2023-07-22T13:19:57;27.60;29.50
70550;DHT22;58101;48.658;2.328;2023-07-22T13:22:23;27.50;30.20
70550;DHT22;58101;48.658;2.328;2023-07-22T13:24:48;27.70;29.90
70550;DHT22;58101;48.658;2.328;2023-07-22T13:27:14;27.70;30.40
70550;DHT22;58101;48.658;2.328;2023-07-22T13:29:39;27.90;30.00
70550;DHT22;58101;48.658;2.328;2023-07-22T13:32:05;27.90;29.80
70550;DHT22;58101;48.658;2.328;2023-07-22T13:34:31;28.30;29.80
70550;DHT22;58101;48.658;2.328;2023-07-22T13:36:57;28.50;29.30
70550;DHT22;58101;48.658;2.328;2023-07-22T13:39:23;28.50;28.70
70550;DHT22;58101;48.658;2.328;2023-07-22T13:41:50;28.30;29.00
70550;DHT22;58101;48.658;2.328;2023-07-22T13:44:16;28.10;29.40
70550;DHT22;58101;48.658;2.328;2023-07-22T13:46:42;28.00;29.90
70550;DHT22;58101;48.658;2.328;2023-07-22T13:49:07;27.80;29.50
70550;DHT22;58101;48.658;2.328;2023-07-22T13:51:33;27.40;30.10
70550;DHT22;58101;48.658;2.328;2023-07-22T13:53:58;27.20;30.70
70550;DHT22;58101;48.658;2.328;2023-07-22T13:56:27;27.20;32.10
70550;DHT22;58101;48.658;2.328;2023-07-22T13:58:57;27.40;31.40
70550;DHT22;58101;48.658;2.328;2023-07-22T14:01:24;27.20;30.30
70550;DHT22;58101;48.658;2.328;2023-07-22T14:03:50;27.10;30.80
70550;DHT22;58101;48.658;2.328;2023-07-22T14:06:15;27.10;31.00
70550;DHT22;58101;48.658;2.328;2023-07-22T14:08:41;27.10;31.50
70550;DHT22;58101;48.658;2.328;2023-07-22T14:11:08;27.30;31.20
70550;DHT22;58101;48.658;2.328;2023-07-22T14:13:33;27.40;31.10
70550;DHT22;58101;48.658;2.328;2023-07-22T14:15:59;27.40;30.90
70550;DHT22;58101;48.658;2.328;2023-07-22T14:18:27;27.40;31.40
70550;DHT22;58101;48.658;2.328;2023-07-22T14:20:53;27.50;31.10
70550;DHT22;58101;48.658;2.328;2023-07-22T14:23:18;27.50;30.60
70550;DHT22;58101;48.658;2.328;2023-07-22T14:25:44;27.50;30.40
70550;DHT22;58101;48.658;2.328;2023-07-22T14:28:09;27.70;30.70
70550;DHT22;58101;48.658;2.328;2023-07-22T14:30:35;27.60;30.40
70550;DHT22;58101;48.658;2.328;2023-07-22T14:33:00;27.40;30.50
70550;DHT22;58101;48.658;2.328;2023-07-22T14:35:26;27.30;30.70
70550;DHT22;58101;48.658;2.328;2023-07-22T14:37:51;27.00;30.70
70550;DHT22;58101;48.658;2.328;2023-07-22T14:40:17;27.00;30.70
70550;DHT22;58101;48.658;2.328;2023-07-22T14:42:43;27.00;30.80
70550;DHT22;58101;48.658;2.328;2023-07-22T14:45:08;26.80;31.00
70550;DHT22;58101;48.658;2.328;2023-07-22T14:47:34;26.70;31.30
70550;DHT22;58101;48.658;2.328;2023-07-22T14:50:00;26.80;31.70
70550;DHT22;58101;48.658;2.328;2023-07-22T14:52:26;27.00;31.10
70550;DHT22;58101;48.658;2.328;2023-07-22T14:54:51;27.10;31.00
70550;DHT22;58101;48.658;2.328;2023-07-22T14:57:17;27.00;30.40
70550;DHT22;58101;48.658;2.328;2023-07-22T14:59:43;27.00;31.20
70550;DHT22;58101;48.658;2.328;2023-07-22T15:02:09;27.10;31.10
70550;DHT22;58101;48.658;2.328;2023-07-22T15:04:35;27.00;30.70
70550;DHT22;58101;48.658;2.328;2023-07-22T15:07:01;27.10;30.80
70550;DHT22;58101;48.658;2.328;2023-07-22T15:09:27;27.20;31.10
70550;DHT22;58101;48.658;2.328;2023-07-22T15:11:53;27.10;30.60
70550;DHT22;58101;48.658;2.328;2023-07-22T15:14:18;27.00;30.50
70550;DHT22;58101;48.658;2.328;2023-07-22T15:16:44;26.90;30.70
70550;DHT22;58101;48.658;2.328;2023-07-22T15:19:11;26.90;30.80
70550;DHT22;58101;48.658;2.328;2023-07-22T15:21:36;27.00;30.90
70550;DHT22;58101;48.658;2.328;2023-07-22T15:24:02;27.00;31.10
70550;DHT22;58101;48.658;2.328;2023-07-22T15:26:27;26.70;31.30
70550;DHT22;58101;48.658;2.328;2023-07-22T15:28:53;26.60;31.70
70550;DHT22;58101;48.658;2.328;2023-07-22T15:31:19;26.60;31.60
70550;DHT22;58101;48.658;2.328;2023-07-22T15:33:46;26.60;31.90
70550;DHT22;58101;48.658;2.328;2023-07-22T15:36:12;26.60;31.80
70550;DHT22;58101;48.658;2.328;2023-07-22T15:38:37;26.70;31.40
70550;DHT22;58101;48.658;2.328;2023-07-22T15:41:03;26.70;31.30
70550;DHT22;58101;48.658;2.328;2023-07-22T15:43:29;26.50;31.30
70550;DHT22;58101;48.658;2.328;2023-07-22T15:45:56;26.40;31.60
70550;DHT22;58101;48.658;2.328;2023-07-22T15:48:24;26.40;31.70